Time,TemperatureF,DewpointF,PressureIn,WindDirection,WindDirectionDegrees,WindSpeedMPH,WindSpeedGustMPH,Humidity,HourlyPrecipIn,Conditions,Clouds,dailyrainin,SoftwareType,DateUTC
2013-08-23 00:03:00,75.7,69.9,30.09,North,0,0.0,0.0,82,0.00,,,0.00,WUHU21623XXSP,2013-08-23 05:03:00,
2013-08-23 00:08:00,75.7,70.2,30.09,North,0,0.0,0.0,83,0.00,,,0.00,WUHU21623XXSP,2013-08-23 05:08:00,
2013-08-23 00:13:00,75.6,70.1,30.09,North,0,0.0,0.0,83,0.00,,,0.00,WUHU21623XXSP,2013-08-23 05:13:00,
2013-08-23 00:18:00,75.4,69.9,30.09,North,0,0.0,0.0,83,0.00,,,0.00,WUHU21623XXSP,2013-08-23 05:18:00,
2013-08-23 00:23:00,75.4,69.9,30.10,North,0,0.0,0.0,83,0.00,,,0.00,WUHU21623XXSP,2013-08-23 05:23:00,
2013-08-23 00:28:00,75.4,70.3,30.09,North,0,0.0,0.0,84,0.00,,,0.00,WUHU21623XXSP,2013-08-23 05:28:00,
2013-08-23 00:33:00,75.2,70.3,30.09,North,0,0.0,0.0,84,0.00,,,0.00,WUHU21623XXSP,2013-08-23 05:33:00,
2013-08-23 00:38:00,75.0,69.9,30.09,North,0,0.0,0.0,84,0.00,,,0.00,WUHU21623XXSP,2013-08-23 05:38:00,
2013-08-23 00:43:00,75.0,69.9,30.09,North,0,0.0,0.0,84,0.00,,,0.00,WUHU21623XXSP,2013-08-23 05:43:00,
2013-08-23 00:48:00,75.0,69.9,30.09,North,0,0.0,0.0,84,0.00,,,0.00,WUHU21623XXSP,2013-08-23 05:48:00,
2013-08-23 00:53:00,74.8,69.7,30.09,North,0,0.0,0.0,84,0.00,,,0.00,WUHU21623XXSP,2013-08-23 05:53:00,
2013-08-23 00:58:00,74.8,69.7,30.09,North,0,0.0,0.0,84,0.00,,,0.00,WUHU21623XXSP,2013-08-23 05:58:00,
2013-08-23 01:03:00,74.8,69.7,30.09,North,0,0.0,0.0,84,0.00,,,0.00,WUHU21623XXSP,2013-08-23 06:03:00,
2013-08-23 01:08:00,74.5,69.4,30.09,North,0,0.0,0.0,84,0.00,,,0.00,WUHU21623XXSP,2013-08-23 06:08:00,
2013-08-23 01:13:00,74.5,69.4,30.09,North,0,0.0,0.0,84,0.00,,,0.00,WUHU21623XXSP,2013-08-23 06:13:00,
2013-08-23 01:18:00,74.5,69.7,30.09,North,0,0.0,0.0,85,0.00,,,0.00,WUHU21623XXSP,2013-08-23 06:18:00,
2013-08-23 01:23:00,74.5,69.7,30.09,North,0,0.0,0.0,85,0.00,,,0.00,WUHU21623XXSP,2013-08-23 06:23:00,
2013-08-23 01:28:00,74.5,69.7,30.09,North,0,0.0,0.0,85,0.00,,,0.00,WUHU21623XXSP,2013-08-23 06:28:00,
2013-08-23 01:33:00,74.3,69.5,30.09,North,0,0.0,0.0,85,0.00,,,0.00,WUHU21623XXSP,2013-08-23 06:33:00,
2013-08-23 01:38:00,74.3,69.5,30.09,North,0,0.0,0.0,85,0.00,,,0.00,WUHU21623XXSP,2013-08-23 06:38:00,
2013-08-23 01:43:00,74.1,69.3,30.09,North,0,0.0,0.0,85,0.00,,,0.00,WUHU21623XXSP,2013-08-23 06:43:00,
2013-08-23 01:48:00,74.1,69.3,30.09,North,0,0.0,0.0,85,0.00,,,0.00,WUHU21623XXSP,2013-08-23 06:48:00,
2013-08-23 01:53:00,74.1,69.3,30.09,North,0,0.0,0.0,85,0.00,,,0.00,WUHU21623XXSP,2013-08-23 06:53:00,
2013-08-23 01:58:00,74.1,69.3,30.09,North,0,0.0,0.0,85,0.00,,,0.00,WUHU21623XXSP,2013-08-23 06:58:00,
2013-08-23 02:03:00,73.9,69.2,30.09,North,0,0.0,0.0,85,0.00,,,0.00,WUHU21623XXSP,2013-08-23 07:03:00,
2013-08-23 02:08:00,73.9,69.2,30.09,North,0,0.0,0.0,85,0.00,,,0.00,WUHU21623XXSP,2013-08-23 07:08:00,
2013-08-23 02:13:00,73.8,69.0,30.09,North,0,0.0,0.0,85,0.00,,,0.00,WUHU21623XXSP,2013-08-23 07:13:00,
2013-08-23 02:18:00,73.6,68.8,30.09,North,0,0.0,0.0,85,0.00,,,0.00,WUHU21623XXSP,2013-08-23 07:18:00,
2013-08-23 02:23:00,73.6,68.8,30.08,North,0,0.0,0.0,85,0.00,,,0.00,WUHU21623XXSP,2013-08-23 07:23:00,
2013-08-23 02:28:00,73.4,68.6,30.08,North,0,0.0,0.0,85,0.00,,,0.00,WUHU21623XXSP,2013-08-23 07:28:00,
2013-08-23 02:33:00,73.2,68.5,30.08,North,0,0.0,0.0,86,0.00,,,0.00,WUHU21623XXSP,2013-08-23 07:33:00,
2013-08-23 02:38:00,73.2,68.8,30.08,North,0,0.0,0.0,86,0.00,,,0.00,WUHU21623XXSP,2013-08-23 07:38:00,
2013-08-23 02:43:00,73.2,68.8,30.08,North,0,0.0,0.0,86,0.00,,,0.00,WUHU21623XXSP,2013-08-23 07:43:00,
2013-08-23 02:48:00,73.0,68.6,30.08,North,0,0.0,0.0,86,0.00,,,0.00,WUHU21623XXSP,2013-08-23 07:48:00,
2013-08-23 02:53:00,73.0,68.6,30.08,North,0,0.0,0.0,86,0.00,,,0.00,WUHU21623XXSP,2013-08-23 07:53:00,
2013-08-23 02:58:00,72.9,68.4,30.08,North,0,0.0,0.0,86,0.00,,,0.00,WUHU21623XXSP,2013-08-23 07:58:00,
2013-08-23 03:03:00,72.7,68.3,30.08,North,0,0.0,0.0,86,0.00,,,0.00,WUHU21623XXSP,2013-08-23 08:03:00,
2013-08-23 03:08:00,72.7,68.3,30.08,North,0,0.0,0.0,86,0.00,,,0.00,WUHU21623XXSP,2013-08-23 08:08:00,
2013-08-23 03:13:00,72.7,68.3,30.08,North,0,0.0,0.0,86,0.00,,,0.00,WUHU21623XXSP,2013-08-23 08:13:00,
2013-08-23 03:18:00,72.7,68.3,30.09,North,0,0.0,0.0,86,0.00,,,0.00,WUHU21623XXSP,2013-08-23 08:18:00,
2013-08-23 03:23:00,72.7,68.6,30.09,North,0,0.0,0.0,87,0.00,,,0.00,WUHU21623XXSP,2013-08-23 08:23:00,
2013-08-23 03:28:00,72.5,68.4,30.09,North,0,0.0,0.0,87,0.00,,,0.00,WUHU21623XXSP,2013-08-23 08:28:00,
2013-08-23 03:33:00,72.3,68.2,30.09,North,0,0.0,0.0,87,0.00,,,0.00,WUHU21623XXSP,2013-08-23 08:33:00,
2013-08-23 11:57:00,88.2,73.1,30.12,North,0,0.0,0.0,61,0.00,,,0.00,WUHU21623XXSP,2013-08-23 16:57:00,
2013-08-23 12:02:00,88.2,73.1,30.12,North,0,0.0,0.0,61,0.00,,,0.00,WUHU21623XXSP,2013-08-23 17:02:00,
2013-08-23 12:07:00,88.3,73.1,30.12,North,0,0.0,0.0,61,0.00,,,0.00,WUHU21623XXSP,2013-08-23 17:07:00,
2013-08-23 12:12:00,88.3,73.3,30.12,North,0,0.0,0.0,61,0.00,,,0.00,WUHU21623XXSP,2013-08-23 17:12:00,
2013-08-23 12:17:00,88.2,72.6,30.12,North,0,0.0,0.0,60,0.00,,,0.00,WUHU21623XXSP,2013-08-23 17:17:00,
2013-08-23 13:07:00,89.4,73.2,30.11,North,0,0.0,0.0,59,0.00,,,0.00,WUHU21623XXSP,2013-08-23 18:07:00,
2013-08-23 13:12:00,89.4,72.7,30.11,North,0,0.0,0.0,58,0.00,,,0.00,WUHU21623XXSP,2013-08-23 18:12:00,
2013-08-23 13:17:00,89.8,73.0,30.11,North,0,0.0,0.0,58,0.00,,,0.00,WUHU21623XXSP,2013-08-23 18:17:00,
2013-08-23 13:22:00,90.7,72.2,30.11,North,0,0.0,0.0,55,0.00,,,0.00,WUHU21623XXSP,2013-08-23 18:22:00,
2013-08-23 13:27:00,91.4,72.3,30.11,North,0,0.0,0.0,54,0.00,,,0.00,WUHU21623XXSP,2013-08-23 18:27:00,
2013-08-23 13:32:00,91.6,72.5,30.11,North,0,0.0,0.0,54,0.00,,,0.00,WUHU21623XXSP,2013-08-23 18:32:00,
2013-08-23 13:37:00,92.1,72.4,30.11,North,0,0.0,0.0,53,0.00,,,0.00,WUHU21623XXSP,2013-08-23 18:37:00,
2013-08-23 13:42:00,92.1,72.4,30.10,North,0,0.0,0.0,53,0.00,,,0.00,WUHU21623XXSP,2013-08-23 18:42:00,
2013-08-23 13:47:00,93.0,72.7,30.10,North,0,0.0,0.0,52,0.00,,,0.00,WUHU21623XXSP,2013-08-23 18:47:00,
2013-08-23 13:52:00,92.8,72.6,30.10,North,0,0.0,0.0,52,0.00,,,0.00,WUHU21623XXSP,2013-08-23 18:52:00,
2013-08-23 13:57:00,92.1,71.9,30.11,North,0,0.0,0.0,52,0.00,,,0.00,WUHU21623XXSP,2013-08-23 18:57:00,
2013-08-23 23:27:00,77.0,68.1,30.11,North,0,0.0,0.0,74,0.00,,,0.00,WUHU21623XXSP,2013-08-24 04:27:00,
2013-08-23 23:29:00,76.8,68.3,30.11,North,0,0.0,0.0,75,0.00,,,0.00,WUHU21623XXSP,2013-08-24 04:29:00,
2013-08-23 23:32:00,76.8,68.3,30.11,North,0,0.0,0.0,75,0.00,,,0.00,WUHU21623XXSP,2013-08-24 04:32:00,
2013-08-23 23:37:00,76.8,68.3,30.11,North,0,0.0,0.0,75,0.00,,,0.00,WUHU21623XXSP,2013-08-24 04:37:00,
2013-08-23 23:42:00,76.6,68.3,30.11,North,0,0.0,0.0,75,0.00,,,0.00,WUHU21623XXSP,2013-08-24 04:42:00,
2013-08-23 23:47:00,76.6,68.1,30.11,North,0,0.0,0.0,75,0.00,,,0.00,WUHU21623XXSP,2013-08-24 04:47:00,
2013-08-23 23:52:00,76.6,68.1,30.11,North,0,0.0,0.0,75,0.00,,,0.00,WUHU21623XXSP,2013-08-24 04:52:00,
2013-08-23 23:57:00,76.5,67.9,30.11,North,0,0.0,0.0,75,0.00,,,0.00,WUHU21623XXSP,2013-08-24 04:57:00,